sensor_id;sensor_type;location;lat;lon;timestamp;P1;durP1;ratioP1;P2;durP2;ratioP2
9799;SDS011;4939;52.00085300;4.17406100;2023-12-14T00:00:31;14.57;;;6.18;;
9799;SDS011;4939;52.00085300;4.17406100;2023-12-14T00:02:56;13.60;;;5.85;;
9799;SDS011;4939;52.00085300;4.17406100;2023-12-14T00:05:22;12.15;;;5.88;;
9799;SDS011;4939;52.00085300;4.17406100;2023-12-14T00:07:48;15.23;;;6.40;;
9799;SDS011;4939;52.00085300;4.17406100;2023-12-14T00:10:14;15.32;;;5.13;;
9799;SDS011;4939;52.00085300;4.17406100;2023-12-14T00:12:43;18.45;;;5.13;;
9799;SDS011;4939;52.00085300;4.17406100;2023-12-14T00:15:09;11.45;;;5.30;;
9799;SDS011;4939;52.00085300;4.17406100;2023-12-14T00:17:34;11.57;;;4.80;;
9799;SDS011;4939;52.00085300;4.17406100;2023-12-14T00:20:00;13.02;;;4.70;;
9799;SDS011;4939;52.00085300;4.17406100;2023-12-14T00:22:26;9.55;;;4.47;;
9799;SDS011;4939;52.00085300;4.17406100;2023-12-14T00:24:52;13.23;;;4.68;;
9799;SDS011;4939;52.00085300;4.17406100;2023-12-14T00:27:17;13.65;;;4.63;;
9799;SDS011;4939;52.00085300;4.17406100;2023-12-14T00:29:43;14.30;;;5.00;;
9799;SDS011;4939;52.00085300;4.17406100;2023-12-14T00:32:09;12.45;;;4.40;;
9799;SDS011;4939;52.00085300;4.17406100;2023-12-14T00:34:35;9.23;;;3.85;;
9799;SDS011;4939;52.00085300;4.17406100;2023-12-14T00:37:01;11.93;;;3.75;;
9799;SDS011;4939;52.00085300;4.17406100;2023-12-14T00:39:27;13.30;;;4.40;;
9799;SDS011;4939;52.00085300;4.17406100;2023-12-14T00:41:53;11.85;;;4.78;;
9799;SDS011;4939;52.00085300;4.17406100;2023-12-14T00:44:19;10.98;;;4.20;;
9799;SDS011;4939;52.00085300;4.17406100;2023-12-14T00:46:45;14.30;;;4.65;;
9799;SDS011;4939;52.00085300;4.17406100;2023-12-14T00:49:10;14.30;;;5.13;;
9799;SDS011;4939;52.00085300;4.17406100;2023-12-14T00:51:37;12.30;;;4.60;;
9799;SDS011;4939;52.00085300;4.17406100;2023-12-14T00:54:03;16.27;;;4.85;;
9799;SDS011;4939;52.00085300;4.17406100;2023-12-14T00:56:29;14.18;;;5.32;;
9799;SDS011;4939;52.00085300;4.17406100;2023-12-14T00:58:54;14.40;;;5.55;;
9799;SDS011;4939;52.00085300;4.17406100;2023-12-14T01:01:20;15.98;;;5.53;;
9799;SDS011;4939;52.00085300;4.17406100;2023-12-14T01:03:46;15.30;;;5.45;;
9799;SDS011;4939;52.00085300;4.17406100;2023-12-14T01:06:12;15.23;;;5.90;;
9799;SDS011;4939;52.00085300;4.17406100;2023-12-14T01:08:38;15.88;;;5.10;;
9799;SDS011;4939;52.00085300;4.17406100;2023-12-14T01:11:04;17.02;;;5.20;;
9799;SDS011;4939;52.00085300;4.17406100;2023-12-14T01:13:29;13.25;;;4.97;;
9799;SDS011;4939;52.00085300;4.17406100;2023-12-14T01:15:55;13.95;;;5.25;;
9799;SDS011;4939;52.00085300;4.17406100;2023-12-14T01:18:21;11.77;;;5.10;;
9799;SDS011;4939;52.00085300;4.17406100;2023-12-14T01:20:47;14.63;;;5.38;;
9799;SDS011;4939;52.00085300;4.17406100;2023-12-14T01:23:13;13.18;;;4.93;;
9799;SDS011;4939;52.00085300;4.17406100;2023-12-14T01:25:39;13.32;;;4.55;;
9799;SDS011;4939;52.00085300;4.17406100;2023-12-14T01:28:05;13.43;;;5.22;;
9799;SDS011;4939;52.00085300;4.17406100;2023-12-14T01:30:30;17.55;;;5.90;;
9799;SDS011;4939;52.00085300;4.17406100;2023-12-14T01:32:56;15.48;;;6.32;;
9799;SDS011;4939;52.00085300;4.17406100;2023-12-14T01:35:22;15.88;;;5.28;;
9799;SDS011;4939;52.00085300;4.17406100;2023-12-14T01:37:48;18.25;;;6.05;;
9799;SDS011;4939;52.00085300;4.17406100;2023-12-14T01:40:14;19.98;;;6.40;;
9799;SDS011;4939;52.00085300;4.17406100;2023-12-14T01:42:43;14.57;;;5.63;;
9799;SDS011;4939;52.00085300;4.17406100;2023-12-14T01:45:09;14.90;;;5.22;;
9799;SDS011;4939;52.00085300;4.17406100;2023-12-14T01:47:35;17.27;;;5.38;;
9799;SDS011;4939;52.00085300;4.17406100;2023-12-14T01:50:01;14.93;;;5.07;;
9799;SDS011;4939;52.00085300;4.17406100;2023-12-14T01:52:27;15.55;;;5.28;;
9799;SDS011;4939;52.00085300;4.17406100;2023-12-14T01:54:53;17.40;;;5.57;;
9799;SDS011;4939;52.00085300;4.17406100;2023-12-14T01:57:20;15.82;;;5.53;;
9799;SDS011;4939;52.00085300;4.17406100;2023-12-14T01:59:46;20.45;;;4.88;;
9799;SDS011;4939;52.00085300;4.17406100;2023-12-14T02:02:12;18.52;;;5.88;;
9799;SDS011;4939;52.00085300;4.17406100;2023-12-14T02:04:38;15.77;;;5.32;;
9799;SDS011;4939;52.00085300;4.17406100;2023-12-14T02:07:03;14.60;;;5.28;;
9799;SDS011;4939;52.00085300;4.17406100;2023-12-14T02:09:29;20.42;;;5.38;;
9799;SDS011;4939;52.00085300;4.17406100;2023-12-14T02:11:55;17.60;;;5.60;;
9799;SDS011;4939;52.00085300;4.17406100;2023-12-14T02:14:21;16.15;;;4.32;;
9799;SDS011;4939;52.00085300;4.17406100;2023-12-14T02:16:50;11.50;;;4.00;;
9799;SDS011;4939;52.00085300;4.17406100;2023-12-14T02:19:16;11.10;;;3.47;;
9799;SDS011;4939;52.00085300;4.17406100;2023-12-14T02:21:42;14.65;;;3.92;;
9799;SDS011;4939;52.00085300;4.17406100;2023-12-14T02:24:08;7.70;;;3.17;;
9799;SDS011;4939;52.00085300;4.17406100;2023-12-14T02:26:34;8.85;;;2.60;;
9799;SDS011;4939;52.00085300;4.17406100;2023-12-14T02:29:00;8.20;;;2.47;;
9799;SDS011;4939;52.00085300;4.17406100;2023-12-14T02:31:26;7.97;;;2.45;;
9799;SDS011;4939;52.00085300;4.17406100;2023-12-14T02:33:52;10.98;;;2.70;;
9799;SDS011;4939;52.00085300;4.17406100;2023-12-14T02:36:18;8.65;;;2.40;;
9799;SDS011;4939;52.00085300;4.17406100;2023-12-14T02:38:44;6.18;;;2.67;;
9799;SDS011;4939;52.00085300;4.17406100;2023-12-14T02:41:10;7.32;;;2.60;;
9799;SDS011;4939;52.00085300;4.17406100;2023-12-14T02:43:36;7.60;;;2.40;;
9799;SDS011;4939;52.00085300;4.17406100;2023-12-14T02:46:03;9.32;;;2.78;;
9799;SDS011;4939;52.00085300;4.17406100;2023-12-14T02:48:29;9.07;;;2.63;;
9799;SDS011;4939;52.00085300;4.17406100;2023-12-14T02:50:55;9.25;;;2.65;;
9799;SDS011;4939;52.00085300;4.17406100;2023-12-14T02:53:22;10.77;;;3.08;;
9799;SDS011;4939;52.00085300;4.17406100;2023-12-14T02:55:48;9.10;;;2.72;;
9799;SDS011;4939;52.00085300;4.17406100;2023-12-14T02:58:14;8.32;;;2.90;;
9799;SDS011;4939;52.00085300;4.17406100;2023-12-14T03:00:40;9.32;;;2.90;;
9799;SDS011;4939;52.00085300;4.17406100;2023-12-14T03:03:05;11.30;;;2.95;;
9799;SDS011;4939;52.00085300;4.17406100;2023-12-14T03:05:31;6.97;;;2.42;;
9799;SDS011;4939;52.00085300;4.17406100;2023-12-14T03:07:57;6.10;;;2.40;;
9799;SDS011;4939;52.00085300;4.17406100;2023-12-14T03:10:23;6.95;;;2.28;;
9799;SDS011;4939;52.00085300;4.17406100;2023-12-14T03:12:49;6.75;;;2.35;;
9799;SDS011;4939;52.00085300;4.17406100;2023-12-14T03:15:16;6.10;;;2.55;;
9799;SDS011;4939;52.00085300;4.17406100;2023-12-14T03:17:43;9.15;;;2.33;;
9799;SDS011;4939;52.00085300;4.17406100;2023-12-14T03:20:09;10.48;;;2.90;;
9799;SDS011;4939;52.00085300;4.17406100;2023-12-14T03:22:35;9.25;;;3.10;;
9799;SDS011;4939;52.00085300;4.17406100;2023-12-14T03:25:01;7.15;;;2.45;;
9799;SDS011;4939;52.00085300;4.17406100;2023-12-14T03:27:27;8.95;;;2.80;;
9799;SDS011;4939;52.00085300;4.17406100;2023-12-14T03:29:53;7.63;;;2.47;;
9799;SDS011;4939;52.00085300;4.17406100;2023-12-14T03:32:19;7.63;;;2.33;;
9799;SDS011;4939;52.00085300;4.17406100;2023-12-14T03:34:45;5.10;;;2.40;;
9799;SDS011;4939;52.00085300;4.17406100;2023-12-14T03:37:11;10.50;;;3.00;;
9799;SDS011;4939;52.00085300;4.17406100;2023-12-14T03:39:37;8.70;;;2.80;;
9799;SDS011;4939;52.00085300;4.17406100;2023-12-14T03:42:03;9.95;;;2.88;;
9799;SDS011;4939;52.00085300;4.17406100;2023-12-14T03:44:29;11.27;;;3.20;;
9799;SDS011;4939;52.00085300;4.17406100;2023-12-14T03:46:55;12.20;;;2.80;;
9799;SDS011;4939;52.00085300;4.17406100;2023-12-14T03:49:23;7.78;;;3.15;;
9799;SDS011;4939;52.00085300;4.17406100;2023-12-14T03:51:49;9.90;;;2.90;;
9799;SDS011;4939;52.00085300;4.17406100;2023-12-14T03:54:15;10.02;;;2.95;;
9799;SDS011;4939;52.00085300;4.17406100;2023-12-14T03:56:41;11.98;;;3.25;;
9799;SDS011;4939;52.00085300;4.17406100;2023-12-14T03:59:07;9.05;;;2.67;;
9799;SDS011;4939;52.00085300;4.17406100;2023-12-14T04:01:33;6.90;;;2.70;;
9799;SDS011;4939;52.00085300;4.17406100;2023-12-14T04:03:59;7.30;;;3.05;;
9799;SDS011;4939;52.00085300;4.17406100;2023-12-14T04:06:24;7.28;;;2.55;;
9799;SDS011;4939;52.00085300;4.17406100;2023-12-14T04:08:50;7.25;;;2.88;;
9799;SDS011;4939;52.00085300;4.17406100;2023-12-14T04:11:16;9.60;;;2.90;;
9799;SDS011;4939;52.00085300;4.17406100;2023-12-14T04:13:42;12.52;;;3.20;;
9799;SDS011;4939;52.00085300;4.17406100;2023-12-14T04:16:08;10.48;;;2.60;;
9799;SDS011;4939;52.00085300;4.17406100;2023-12-14T04:18:34;8.15;;;2.80;;
9799;SDS011;4939;52.00085300;4.17406100;2023-12-14T04:21:00;10.95;;;2.63;;
9799;SDS011;4939;52.00085300;4.17406100;2023-12-14T04:23:26;7.30;;;2.83;;
9799;SDS011;4939;52.00085300;4.17406100;2023-12-14T04:25:52;7.40;;;2.28;;
9799;SDS011;4939;52.00085300;4.17406100;2023-12-14T04:28:17;18.95;;;2.60;;
9799;SDS011;4939;52.00085300;4.17406100;2023-12-14T04:30:43;7.75;;;2.25;;
9799;SDS011;4939;52.00085300;4.17406100;2023-12-14T04:33:09;11.68;;;2.22;;
9799;SDS011;4939;52.00085300;4.17406100;2023-12-14T04:35:36;8.82;;;2.10;;
9799;SDS011;4939;52.00085300;4.17406100;2023-12-14T04:38:02;9.38;;;2.50;;
9799;SDS011;4939;52.00085300;4.17406100;2023-12-14T04:40:28;7.38;;;2.00;;
9799;SDS011;4939;52.00085300;4.17406100;2023-12-14T04:42:54;9.77;;;2.40;;
9799;SDS011;4939;52.00085300;4.17406100;2023-12-14T04:45:20;6.82;;;1.98;;
9799;SDS011;4939;52.00085300;4.17406100;2023-12-14T04:47:46;4.82;;;1.30;;
9799;SDS011;4939;52.00085300;4.17406100;2023-12-14T04:50:12;4.90;;;1.60;;
9799;SDS011;4939;52.00085300;4.17406100;2023-12-14T04:52:38;5.03;;;1.60;;
9799;SDS011;4939;52.00085300;4.17406100;2023-12-14T04:55:04;4.07;;;1.10;;
9799;SDS011;4939;52.00085300;4.17406100;2023-12-14T04:57:30;8.32;;;1.17;;
9799;SDS011;4939;52.00085300;4.17406100;2023-12-14T04:59:56;6.82;;;1.45;;
9799;SDS011;4939;52.00085300;4.17406100;2023-12-14T05:02:22;6.18;;;1.35;;
9799;SDS011;4939;52.00085300;4.17406100;2023-12-14T05:04:48;3.63;;;1.10;;
9799;SDS011;4939;52.00085300;4.17406100;2023-12-14T05:07:14;1.48;;;0.80;;
9799;SDS011;4939;52.00085300;4.17406100;2023-12-14T05:09:40;2.78;;;1.20;;
9799;SDS011;4939;52.00085300;4.17406100;2023-12-14T05:12:06;3.75;;;1.60;;
9799;SDS011;4939;52.00085300;4.17406100;2023-12-14T05:14:32;6.22;;;1.90;;
9799;SDS011;4939;52.00085300;4.17406100;2023-12-14T05:16:58;3.47;;;1.15;;
9799;SDS011;4939;52.00085300;4.17406100;2023-12-14T05:19:24;3.15;;;1.15;;
9799;SDS011;4939;52.00085300;4.17406100;2023-12-14T05:21:50;3.33;;;1.25;;
9799;SDS011;4939;52.00085300;4.17406100;2023-12-14T05:24:16;3.88;;;1.08;;
9799;SDS011;4939;52.00085300;4.17406100;2023-12-14T05:26:42;3.40;;;1.13;;
9799;SDS011;4939;52.00085300;4.17406100;2023-12-14T05:29:08;8.70;;;1.27;;
9799;SDS011;4939;52.00085300;4.17406100;2023-12-14T05:31:33;3.28;;;1.10;;
9799;SDS011;4939;52.00085300;4.17406100;2023-12-14T05:33:59;5.20;;;1.35;;
9799;SDS011;4939;52.00085300;4.17406100;2023-12-14T05:36:25;4.47;;;1.20;;
9799;SDS011;4939;52.00085300;4.17406100;2023-12-14T05:38:51;4.75;;;1.30;;
9799;SDS011;4939;52.00085300;4.17406100;2023-12-14T05:41:17;5.53;;;1.38;;
9799;SDS011;4939;52.00085300;4.17406100;2023-12-14T05:43:43;5.05;;;1.30;;
9799;SDS011;4939;52.00085300;4.17406100;2023-12-14T05:46:08;6.40;;;1.75;;
9799;SDS011;4939;52.00085300;4.17406100;2023-12-14T05:48:34;6.30;;;1.75;;
9799;SDS011;4939;52.00085300;4.17406100;2023-12-14T05:51:01;5.82;;;1.48;;
9799;SDS011;4939;52.00085300;4.17406100;2023-12-14T05:53:27;3.67;;;1.10;;
9799;SDS011;4939;52.00085300;4.17406100;2023-12-14T05:55:53;6.13;;;1.45;;
9799;SDS011;4939;52.00085300;4.17406100;2023-12-14T05:58:19;5.70;;;1.50;;
9799;SDS011;4939;52.00085300;4.17406100;2023-12-14T06:00:51;6.90;;;1.73;;
9799;SDS011;4939;52.00085300;4.17406100;2023-12-14T06:03:17;7.90;;;1.42;;
9799;SDS011;4939;52.00085300;4.17406100;2023-12-14T06:05:43;5.95;;;1.70;;
9799;SDS011;4939;52.00085300;4.17406100;2023-12-14T06:08:09;5.00;;;1.60;;
9799;SDS011;4939;52.00085300;4.17406100;2023-12-14T06:10:35;4.45;;;1.45;;
9799;SDS011;4939;52.00085300;4.17406100;2023-12-14T06:13:01;6.45;;;1.63;;
9799;SDS011;4939;52.00085300;4.17406100;2023-12-14T06:15:27;5.72;;;1.80;;
9799;SDS011;4939;52.00085300;4.17406100;2023-12-14T06:17:53;7.30;;;1.60;;
9799;SDS011;4939;52.00085300;4.17406100;2023-12-14T06:20:18;4.80;;;1.42;;
9799;SDS011;4939;52.00085300;4.17406100;2023-12-14T06:22:44;9.73;;;1.75;;
9799;SDS011;4939;52.00085300;4.17406100;2023-12-14T06:25:10;7.43;;;1.45;;
9799;SDS011;4939;52.00085300;4.17406100;2023-12-14T06:27:36;7.93;;;1.75;;
9799;SDS011;4939;52.00085300;4.17406100;2023-12-14T06:30:02;6.35;;;1.90;;
9799;SDS011;4939;52.00085300;4.17406100;2023-12-14T06:32:28;4.43;;;1.70;;
9799;SDS011;4939;52.00085300;4.17406100;2023-12-14T06:34:54;6.63;;;2.00;;
9799;SDS011;4939;52.00085300;4.17406100;2023-12-14T06:37:20;5.47;;;1.65;;
9799;SDS011;4939;52.00085300;4.17406100;2023-12-14T06:39:47;5.28;;;2.00;;
9799;SDS011;4939;52.00085300;4.17406100;2023-12-14T06:42:13;4.97;;;1.75;;
9799;SDS011;4939;52.00085300;4.17406100;2023-12-14T06:44:39;7.45;;;2.20;;
9799;SDS011;4939;52.00085300;4.17406100;2023-12-14T06:47:05;6.40;;;1.80;;
9799;SDS011;4939;52.00085300;4.17406100;2023-12-14T06:49:31;6.97;;;2.00;;
9799;SDS011;4939;52.00085300;4.17406100;2023-12-14T06:51:57;10.50;;;2.95;;
9799;SDS011;4939;52.00085300;4.17406100;2023-12-14T06:54:23;5.40;;;2.25;;
9799;SDS011;4939;52.00085300;4.17406100;2023-12-14T06:56:49;5.03;;;2.00;;
9799;SDS011;4939;52.00085300;4.17406100;2023-12-14T06:59:15;6.38;;;2.17;;
9799;SDS011;4939;52.00085300;4.17406100;2023-12-14T07:01:41;8.35;;;2.25;;
9799;SDS011;4939;52.00085300;4.17406100;2023-12-14T07:04:08;6.40;;;2.22;;
9799;SDS011;4939;52.00085300;4.17406100;2023-12-14T07:06:34;7.22;;;2.47;;
9799;SDS011;4939;52.00085300;4.17406100;2023-12-14T07:09:00;8.20;;;2.53;;
9799;SDS011;4939;52.00085300;4.17406100;2023-12-14T07:11:27;11.25;;;2.72;;
9799;SDS011;4939;52.00085300;4.17406100;2023-12-14T07:13:53;8.30;;;2.80;;
9799;SDS011;4939;52.00085300;4.17406100;2023-12-14T07:16:19;12.07;;;2.53;;
9799;SDS011;4939;52.00085300;4.17406100;2023-12-14T07:18:45;6.32;;;2.28;;
9799;SDS011;4939;52.00085300;4.17406100;2023-12-14T07:21:11;12.45;;;3.10;;
9799;SDS011;4939;52.00085300;4.17406100;2023-12-14T07:23:37;6.78;;;2.78;;
9799;SDS011;4939;52.00085300;4.17406100;2023-12-14T07:26:03;8.23;;;3.17;;
9799;SDS011;4939;52.00085300;4.17406100;2023-12-14T07:28:30;8.48;;;3.25;;
9799;SDS011;4939;52.00085300;4.17406100;2023-12-14T07:30:55;12.00;;;2.97;;
9799;SDS011;4939;52.00085300;4.17406100;2023-12-14T07:33:21;10.23;;;3.38;;
9799;SDS011;4939;52.00085300;4.17406100;2023-12-14T07:35:47;8.93;;;3.08;;
9799;SDS011;4939;52.00085300;4.17406100;2023-12-14T07:38:13;11.10;;;3.55;;
9799;SDS011;4939;52.00085300;4.17406100;2023-12-14T07:40:38;8.57;;;3.30;;
9799;SDS011;4939;52.00085300;4.17406100;2023-12-14T07:43:05;10.30;;;3.78;;
9799;SDS011;4939;52.00085300;4.17406100;2023-12-14T07:45:31;10.52;;;3.15;;
9799;SDS011;4939;52.00085300;4.17406100;2023-12-14T07:47:57;13.63;;;3.65;;
9799;SDS011;4939;52.00085300;4.17406100;2023-12-14T07:50:23;13.48;;;3.38;;
9799;SDS011;4939;52.00085300;4.17406100;2023-12-14T07:52:49;10.27;;;3.47;;
9799;SDS011;4939;52.00085300;4.17406100;2023-12-14T07:55:15;10.07;;;3.60;;
9799;SDS011;4939;52.00085300;4.17406100;2023-12-14T07:57:42;9.05;;;3.10;;
9799;SDS011;4939;52.00085300;4.17406100;2023-12-14T08:00:08;9.27;;;3.25;;
9799;SDS011;4939;52.00085300;4.17406100;2023-12-14T08:02:35;7.63;;;2.95;;
9799;SDS011;4939;52.00085300;4.17406100;2023-12-14T08:05:01;14.63;;;4.38;;
9799;SDS011;4939;52.00085300;4.17406100;2023-12-14T08:07:27;10.07;;;3.28;;
9799;SDS011;4939;52.00085300;4.17406100;2023-12-14T08:09:57;11.02;;;3.55;;
9799;SDS011;4939;52.00085300;4.17406100;2023-12-14T08:12:23;9.25;;;3.75;;
9799;SDS011;4939;52.00085300;4.17406100;2023-12-14T08:14:49;11.40;;;3.88;;
9799;SDS011;4939;52.00085300;4.17406100;2023-12-14T08:17:15;11.13;;;3.75;;
9799;SDS011;4939;52.00085300;4.17406100;2023-12-14T08:19:42;14.57;;;3.92;;
9799;SDS011;4939;52.00085300;4.17406100;2023-12-14T08:22:08;10.38;;;3.60;;
9799;SDS011;4939;52.00085300;4.17406100;2023-12-14T08:24:37;13.27;;;3.53;;
9799;SDS011;4939;52.00085300;4.17406100;2023-12-14T08:27:06;10.40;;;4.07;;
9799;SDS011;4939;52.00085300;4.17406100;2023-12-14T08:29:32;10.20;;;3.78;;
9799;SDS011;4939;52.00085300;4.17406100;2023-12-14T08:31:58;12.70;;;4.65;;
9799;SDS011;4939;52.00085300;4.17406100;2023-12-14T08:34:27;10.65;;;4.40;;
9799;SDS011;4939;52.00085300;4.17406100;2023-12-14T08:36:53;10.77;;;3.95;;
9799;SDS011;4939;52.00085300;4.17406100;2023-12-14T08:39:21;8.50;;;3.55;;
9799;SDS011;4939;52.00085300;4.17406100;2023-12-14T08:41:47;7.75;;;3.20;;
9799;SDS011;4939;52.00085300;4.17406100;2023-12-14T08:44:17;9.98;;;4.30;;
9799;SDS011;4939;52.00085300;4.17406100;2023-12-14T08:46:44;11.57;;;4.45;;
9799;SDS011;4939;52.00085300;4.17406100;2023-12-14T08:49:11;9.77;;;4.45;;
9799;SDS011;4939;52.00085300;4.17406100;2023-12-14T08:51:38;14.82;;;4.72;;
9799;SDS011;4939;52.00085300;4.17406100;2023-12-14T08:54:04;13.63;;;4.72;;
9799;SDS011;4939;52.00085300;4.17406100;2023-12-14T08:56:31;9.55;;;3.83;;
9799;SDS011;4939;52.00085300;4.17406100;2023-12-14T08:58:57;10.98;;;4.07;;
9799;SDS011;4939;52.00085300;4.17406100;2023-12-14T09:01:24;12.77;;;4.30;;
9799;SDS011;4939;52.00085300;4.17406100;2023-12-14T09:03:50;9.65;;;3.53;;
9799;SDS011;4939;52.00085300;4.17406100;2023-12-14T09:06:17;10.77;;;3.78;;
9799;SDS011;4939;52.00085300;4.17406100;2023-12-14T09:08:46;8.82;;;3.25;;
9799;SDS011;4939;52.00085300;4.17406100;2023-12-14T09:11:12;8.48;;;3.00;;
9799;SDS011;4939;52.00085300;4.17406100;2023-12-14T09:13:38;8.90;;;3.08;;
9799;SDS011;4939;52.00085300;4.17406100;2023-12-14T09:16:04;8.85;;;3.25;;
9799;SDS011;4939;52.00085300;4.17406100;2023-12-14T09:18:30;7.95;;;3.10;;
9799;SDS011;4939;52.00085300;4.17406100;2023-12-14T09:20:56;8.32;;;3.15;;
9799;SDS011;4939;52.00085300;4.17406100;2023-12-14T09:23:22;11.50;;;4.30;;
9799;SDS011;4939;52.00085300;4.17406100;2023-12-14T09:25:47;9.85;;;3.08;;
9799;SDS011;4939;52.00085300;4.17406100;2023-12-14T09:28:14;9.55;;;3.13;;
9799;SDS011;4939;52.00085300;4.17406100;2023-12-14T09:30:40;10.27;;;4.88;;
9799;SDS011;4939;52.00085300;4.17406100;2023-12-14T09:33:06;11.00;;;3.72;;
9799;SDS011;4939;52.00085300;4.17406100;2023-12-14T09:35:33;10.55;;;3.60;;
9799;SDS011;4939;52.00085300;4.17406100;2023-12-14T09:38:01;10.68;;;4.18;;
9799;SDS011;4939;52.00085300;4.17406100;2023-12-14T09:40:28;12.05;;;3.55;;
9799;SDS011;4939;52.00085300;4.17406100;2023-12-14T09:42:54;12.13;;;3.75;;
9799;SDS011;4939;52.00085300;4.17406100;2023-12-14T09:45:20;9.68;;;3.88;;
9799;SDS011;4939;52.00085300;4.17406100;2023-12-14T09:47:52;11.60;;;3.45;;
9799;SDS011;4939;52.00085300;4.17406100;2023-12-14T09:50:19;10.15;;;3.72;;
9799;SDS011;4939;52.00085300;4.17406100;2023-12-14T09:52:45;10.15;;;3.55;;
9799;SDS011;4939;52.00085300;4.17406100;2023-12-14T09:55:14;10.00;;;3.75;;
9799;SDS011;4939;52.00085300;4.17406100;2023-12-14T09:57:40;9.90;;;3.50;;
9799;SDS011;4939;52.00085300;4.17406100;2023-12-14T10:00:06;9.15;;;3.17;;
9799;SDS011;4939;52.00085300;4.17406100;2023-12-14T10:02:36;8.90;;;3.65;;
9799;SDS011;4939;52.00085300;4.17406100;2023-12-14T10:05:02;9.98;;;3.35;;
9799;SDS011;4939;52.00085300;4.17406100;2023-12-14T10:07:29;8.73;;;3.15;;
9799;SDS011;4939;52.00085300;4.17406100;2023-12-14T10:09:56;9.15;;;3.47;;
9799;SDS011;4939;52.00085300;4.17406100;2023-12-14T10:12:49;9.32;;;3.45;;
9799;SDS011;4939;52.00085300;4.17406100;2023-12-14T10:15:17;9.93;;;3.42;;
9799;SDS011;4939;52.00085300;4.17406100;2023-12-14T10:17:42;10.75;;;3.45;;
9799;SDS011;4939;52.00085300;4.17406100;2023-12-14T10:20:09;8.45;;;3.38;;
9799;SDS011;4939;52.00085300;4.17406100;2023-12-14T10:22:34;10.00;;;3.42;;
9799;SDS011;4939;52.00085300;4.17406100;2023-12-14T10:25:02;12.88;;;4.50;;
9799;SDS011;4939;52.00085300;4.17406100;2023-12-14T10:27:29;11.48;;;4.13;;
9799;SDS011;4939;52.00085300;4.17406100;2023-12-14T10:29:56;11.57;;;3.80;;
9799;SDS011;4939;52.00085300;4.17406100;2023-12-14T10:32:23;9.93;;;3.80;;
9799;SDS011;4939;52.00085300;4.17406100;2023-12-14T10:34:49;7.43;;;3.70;;
9799;SDS011;4939;52.00085300;4.17406100;2023-12-14T10:37:15;10.85;;;3.40;;
9799;SDS011;4939;52.00085300;4.17406100;2023-12-14T10:39:42;9.95;;;3.40;;
9799;SDS011;4939;52.00085300;4.17406100;2023-12-14T10:42:09;9.00;;;3.60;;
9799;SDS011;4939;52.00085300;4.17406100;2023-12-14T10:44:36;11.52;;;3.78;;
9799;SDS011;4939;52.00085300;4.17406100;2023-12-14T10:47:02;7.63;;;2.92;;
9799;SDS011;4939;52.00085300;4.17406100;2023-12-14T10:49:31;11.43;;;3.95;;
9799;SDS011;4939;52.00085300;4.17406100;2023-12-14T10:51:59;10.73;;;3.72;;
9799;SDS011;4939;52.00085300;4.17406100;2023-12-14T10:54:26;9.02;;;3.60;;
9799;SDS011;4939;52.00085300;4.17406100;2023-12-14T10:56:56;11.07;;;3.47;;
9799;SDS011;4939;52.00085300;4.17406100;2023-12-14T10:59:23;9.32;;;3.72;;
9799;SDS011;4939;52.00085300;4.17406100;2023-12-14T11:01:53;13.27;;;4.38;;
9799;SDS011;4939;52.00085300;4.17406100;2023-12-14T11:04:23;10.75;;;3.80;;
9799;SDS011;4939;52.00085300;4.17406100;2023-12-14T11:06:52;9.98;;;4.40;;
9799;SDS011;4939;52.00085300;4.17406100;2023-12-14T11:09:19;12.18;;;4.30;;
9799;SDS011;4939;52.00085300;4.17406100;2023-12-14T11:14:24;11.10;;;4.00;;
9799;SDS011;4939;52.00085300;4.17406100;2023-12-14T11:16:53;14.73;;;4.78;;
9799;SDS011;4939;52.00085300;4.17406100;2023-12-14T11:19:27;9.82;;;4.63;;
9799;SDS011;4939;52.00085300;4.17406100;2023-12-14T11:24:21;13.65;;;5.32;;
9799;SDS011;4939;52.00085300;4.17406100;2023-12-14T11:26:50;14.45;;;5.35;;
9799;SDS011;4939;52.00085300;4.17406100;2023-12-14T11:29:19;12.18;;;5.38;;
9799;SDS011;4939;52.00085300;4.17406100;2023-12-14T11:31:47;13.48;;;5.03;;
9799;SDS011;4939;52.00085300;4.17406100;2023-12-14T11:34:16;14.55;;;5.07;;
9799;SDS011;4939;52.00085300;4.17406100;2023-12-14T11:36:44;12.63;;;4.70;;
9799;SDS011;4939;52.00085300;4.17406100;2023-12-14T11:39:11;12.77;;;4.70;;
9799;SDS011;4939;52.00085300;4.17406100;2023-12-14T11:41:37;13.63;;;4.50;;
9799;SDS011;4939;52.00085300;4.17406100;2023-12-14T11:44:04;11.63;;;4.72;;
9799;SDS011;4939;52.00085300;4.17406100;2023-12-14T11:46:30;10.60;;;3.97;;
9799;SDS011;4939;52.00085300;4.17406100;2023-12-14T11:48:57;12.43;;;4.75;;
9799;SDS011;4939;52.00085300;4.17406100;2023-12-14T11:51:23;12.98;;;4.22;;
9799;SDS011;4939;52.00085300;4.17406100;2023-12-14T11:53:51;10.07;;;3.88;;
9799;SDS011;4939;52.00085300;4.17406100;2023-12-14T11:56:17;10.73;;;4.07;;
9799;SDS011;4939;52.00085300;4.17406100;2023-12-14T11:58:44;15.90;;;5.07;;
9799;SDS011;4939;52.00085300;4.17406100;2023-12-14T12:03:38;15.85;;;4.63;;
9799;SDS011;4939;52.00085300;4.17406100;2023-12-14T12:06:04;11.52;;;4.90;;
9799;SDS011;4939;52.00085300;4.17406100;2023-12-14T12:08:30;13.85;;;4.75;;
9799;SDS011;4939;52.00085300;4.17406100;2023-12-14T12:10:56;14.85;;;5.10;;
9799;SDS011;4939;52.00085300;4.17406100;2023-12-14T12:13:22;11.05;;;4.30;;
9799;SDS011;4939;52.00085300;4.17406100;2023-12-14T12:15:48;13.18;;;4.10;;
9799;SDS011;4939;52.00085300;4.17406100;2023-12-14T12:18:15;11.65;;;4.28;;
9799;SDS011;4939;52.00085300;4.17406100;2023-12-14T12:20:41;12.07;;;4.18;;
9799;SDS011;4939;52.00085300;4.17406100;2023-12-14T12:23:07;13.15;;;4.20;;
9799;SDS011;4939;52.00085300;4.17406100;2023-12-14T12:25:34;12.93;;;4.30;;
9799;SDS011;4939;52.00085300;4.17406100;2023-12-14T12:28:01;15.95;;;4.65;;
9799;SDS011;4939;52.00085300;4.17406100;2023-12-14T12:30:28;14.23;;;4.10;;
9799;SDS011;4939;52.00085300;4.17406100;2023-12-14T12:32:54;13.20;;;4.60;;
9799;SDS011;4939;52.00085300;4.17406100;2023-12-14T12:35:21;11.45;;;4.50;;
9799;SDS011;4939;52.00085300;4.17406100;2023-12-14T12:37:48;16.00;;;3.92;;
9799;SDS011;4939;52.00085300;4.17406100;2023-12-14T12:40:18;11.95;;;4.38;;
9799;SDS011;4939;52.00085300;4.17406100;2023-12-14T12:42:45;9.60;;;3.83;;
9799;SDS011;4939;52.00085300;4.17406100;2023-12-14T12:45:13;7.70;;;3.17;;
9799;SDS011;4939;52.00085300;4.17406100;2023-12-14T12:47:41;9.05;;;3.63;;
9799;SDS011;4939;52.00085300;4.17406100;2023-12-14T12:50:08;10.38;;;3.80;;
9799;SDS011;4939;52.00085300;4.17406100;2023-12-14T12:52:33;11.55;;;3.38;;
9799;SDS011;4939;52.00085300;4.17406100;2023-12-14T12:54:59;6.78;;;2.72;;
9799;SDS011;4939;52.00085300;4.17406100;2023-12-14T12:57:25;9.65;;;3.10;;
9799;SDS011;4939;52.00085300;4.17406100;2023-12-14T12:59:51;7.85;;;2.75;;
9799;SDS011;4939;52.00085300;4.17406100;2023-12-14T13:02:17;5.88;;;2.25;;
9799;SDS011;4939;52.00085300;4.17406100;2023-12-14T13:04:43;5.25;;;2.10;;
9799;SDS011;4939;52.00085300;4.17406100;2023-12-14T13:07:09;9.30;;;2.47;;
9799;SDS011;4939;52.00085300;4.17406100;2023-12-14T13:09:34;6.20;;;2.70;;